sensor_id;sensor_type;location;lat;lon;timestamp;pressure;altitude;pressure_sealevel;temperature
12234;BMP180;6179;51.748;8.728;2023-02-22T00:01:46;230388.00;;;222.90
12234;BMP180;6179;51.748;8.728;2023-02-22T00:08:10;230388.00;;;222.90
12234;BMP180;6179;51.748;8.728;2023-02-22T00:14:11;230388.00;;;222.90
12234;BMP180;6179;51.748;8.728;2023-02-22T00:20:14;230388.00;;;222.90
12234;BMP180;6179;51.748;8.728;2023-02-22T00:26:20;230388.00;;;222.90
12234;BMP180;6179;51.748;8.728;2023-02-22T00:32:21;230388.00;;;222.90
12234;BMP180;6179;51.748;8.728;2023-02-22T00:38:23;230388.00;;;222.90
12234;BMP180;6179;51.748;8.728;2023-02-22T00:44:24;230388.00;;;222.90
12234;BMP180;6179;51.748;8.728;2023-02-22T00:50:29;108418.00;;;222.90
12234;BMP180;6179;51.748;8.728;2023-02-22T00:56:33;108419.00;;;222.90
12234;BMP180;6179;51.748;8.728;2023-02-22T01:02:34;108416.00;;;222.90
12234;BMP180;6179;51.748;8.728;2023-02-22T01:08:35;108421.00;;;222.90
12234;BMP180;6179;51.748;8.728;2023-02-22T01:14:35;108420.00;;;222.90
12234;BMP180;6179;51.748;8.728;2023-02-22T01:20:37;108418.00;;;222.90
12234;BMP180;6179;51.748;8.728;2023-02-22T01:26:38;108418.00;;;222.90
12234;BMP180;6179;51.748;8.728;2023-02-22T01:32:41;108419.00;;;222.90
12234;BMP180;6179;51.748;8.728;2023-02-22T01:38:42;108419.00;;;222.90
12234;BMP180;6179;51.748;8.728;2023-02-22T01:44:44;108419.00;;;222.90
12234;BMP180;6179;51.748;8.728;2023-02-22T01:51:13;108418.00;;;222.90
12234;BMP180;6179;51.748;8.728;2023-02-22T01:57:25;108419.00;;;222.90
12234;BMP180;6179;51.748;8.728;2023-02-22T02:03:32;108420.00;;;222.90
12234;BMP180;6179;51.748;8.728;2023-02-22T02:09:56;108419.00;;;222.90
12234;BMP180;6179;51.748;8.728;2023-02-22T02:15:57;108423.00;;;222.90
12234;BMP180;6179;51.748;8.728;2023-02-22T02:28:44;108420.00;;;222.90
12234;BMP180;6179;51.748;8.728;2023-02-22T02:41:50;108419.00;;;222.90
12234;BMP180;6179;51.748;8.728;2023-02-22T02:47:55;108414.00;;;222.90
12234;BMP180;6179;51.748;8.728;2023-02-22T02:53:59;108421.00;;;222.90
12234;BMP180;6179;51.748;8.728;2023-02-22T03:00:01;108419.00;;;222.90
12234;BMP180;6179;51.748;8.728;2023-02-22T03:19:24;108413.00;;;222.90
12234;BMP180;6179;51.748;8.728;2023-02-22T03:25:47;108422.00;;;222.90
12234;BMP180;6179;51.748;8.728;2023-02-22T03:31:57;108417.00;;;222.90
12234;BMP180;6179;51.748;8.728;2023-02-22T03:38:05;108421.00;;;222.90
12234;BMP180;6179;51.748;8.728;2023-02-22T03:44:14;108423.00;;;222.90
12234;BMP180;6179;51.748;8.728;2023-02-22T03:50:27;108417.00;;;222.90
12234;BMP180;6179;51.748;8.728;2023-02-22T03:56:38;108422.00;;;222.90
12234;BMP180;6179;51.748;8.728;2023-02-22T04:02:46;108413.00;;;222.90
12234;BMP180;6179;51.748;8.728;2023-02-22T04:08:47;108417.00;;;222.90
12234;BMP180;6179;51.748;8.728;2023-02-22T04:14:48;108418.00;;;222.90
12234;BMP180;6179;51.748;8.728;2023-02-22T04:20:49;108417.00;;;222.90
12234;BMP180;6179;51.748;8.728;2023-02-22T04:26:51;108419.00;;;222.90
12234;BMP180;6179;51.748;8.728;2023-02-22T04:32:52;108413.00;;;222.90
12234;BMP180;6179;51.748;8.728;2023-02-22T04:38:53;108420.00;;;222.90
12234;BMP180;6179;51.748;8.728;2023-02-22T04:44:54;108418.00;;;222.90
12234;BMP180;6179;51.748;8.728;2023-02-22T04:50:55;108422.00;;;222.90
12234;BMP180;6179;51.748;8.728;2023-02-22T04:56:56;108423.00;;;222.90
12234;BMP180;6179;51.748;8.728;2023-02-22T05:02:57;108412.00;;;222.90
12234;BMP180;6179;51.748;8.728;2023-02-22T05:08:58;108420.00;;;222.90
12234;BMP180;6179;51.748;8.728;2023-02-22T05:14:59;108415.00;;;222.90
12234;BMP180;6179;51.748;8.728;2023-02-22T05:21:00;108422.00;;;222.90
12234;BMP180;6179;51.748;8.728;2023-02-22T05:27:00;108417.00;;;222.90
12234;BMP180;6179;51.748;8.728;2023-02-22T05:33:01;108417.00;;;222.90
12234;BMP180;6179;51.748;8.728;2023-02-22T05:39:02;108420.00;;;222.90
12234;BMP180;6179;51.748;8.728;2023-02-22T05:45:06;108420.00;;;222.90
12234;BMP180;6179;51.748;8.728;2023-02-22T05:51:06;108420.00;;;222.90
12234;BMP180;6179;51.748;8.728;2023-02-22T05:57:09;108417.00;;;222.90
12234;BMP180;6179;51.748;8.728;2023-02-22T06:03:10;108423.00;;;222.90
12234;BMP180;6179;51.748;8.728;2023-02-22T06:09:12;108423.00;;;222.90
12234;BMP180;6179;51.748;8.728;2023-02-22T06:15:18;108422.00;;;222.90
12234;BMP180;6179;51.748;8.728;2023-02-22T06:21:20;108419.00;;;222.90
12234;BMP180;6179;51.748;8.728;2023-02-22T06:27:20;108415.00;;;222.90
12234;BMP180;6179;51.748;8.728;2023-02-22T06:33:21;108417.00;;;222.90
12234;BMP180;6179;51.748;8.728;2023-02-22T06:39:22;108411.00;;;222.90
12234;BMP180;6179;51.748;8.728;2023-02-22T06:45:25;108416.00;;;222.90
12234;BMP180;6179;51.748;8.728;2023-02-22T06:51:27;108414.00;;;222.90
12234;BMP180;6179;51.748;8.728;2023-02-22T06:57:28;108418.00;;;222.90
12234;BMP180;6179;51.748;8.728;2023-02-22T07:03:29;108418.00;;;222.90
12234;BMP180;6179;51.748;8.728;2023-02-22T07:09:30;108419.00;;;222.90
12234;BMP180;6179;51.748;8.728;2023-02-22T07:15:33;108421.00;;;222.90
12234;BMP180;6179;51.748;8.728;2023-02-22T07:21:34;108419.00;;;222.90
12234;BMP180;6179;51.748;8.728;2023-02-22T07:27:37;108416.00;;;222.90
12234;BMP180;6179;51.748;8.728;2023-02-22T07:33:38;108415.00;;;222.90
12234;BMP180;6179;51.748;8.728;2023-02-22T07:39:39;108424.00;;;222.90
12234;BMP180;6179;51.748;8.728;2023-02-22T07:45:43;230388.00;;;222.90
12234;BMP180;6179;51.748;8.728;2023-02-22T07:51:44;108418.00;;;222.90
12234;BMP180;6179;51.748;8.728;2023-02-22T07:57:48;108420.00;;;222.90
12234;BMP180;6179;51.748;8.728;2023-02-22T08:03:49;108421.00;;;222.90
12234;BMP180;6179;51.748;8.728;2023-02-22T08:09:53;230388.00;;;222.90
12234;BMP180;6179;51.748;8.728;2023-02-22T08:15:55;108419.00;;;222.90
12234;BMP180;6179;51.748;8.728;2023-02-22T08:21:55;230388.00;;;222.90
12234;BMP180;6179;51.748;8.728;2023-02-22T08:28:04;108418.00;;;222.90
12234;BMP180;6179;51.748;8.728;2023-02-22T08:34:06;108419.00;;;222.90
12234;BMP180;6179;51.748;8.728;2023-02-22T08:40:08;108423.00;;;222.90
12234;BMP180;6179;51.748;8.728;2023-02-22T08:46:10;230388.00;;;222.90
12234;BMP180;6179;51.748;8.728;2023-02-22T08:52:12;230388.00;;;222.90
12234;BMP180;6179;51.748;8.728;2023-02-22T08:58:14;230388.00;;;222.90
12234;BMP180;6179;51.748;8.728;2023-02-22T09:04:15;230388.00;;;222.90
12234;BMP180;6179;51.748;8.728;2023-02-22T09:10:21;230388.00;;;222.90
12234;BMP180;6179;51.748;8.728;2023-02-22T09:16:24;230388.00;;;222.90
12234;BMP180;6179;51.748;8.728;2023-02-22T09:22:24;230388.00;;;222.90
12234;BMP180;6179;51.748;8.728;2023-02-22T09:28:29;230388.00;;;222.90
12234;BMP180;6179;51.748;8.728;2023-02-22T09:34:29;230388.00;;;222.90
12234;BMP180;6179;51.748;8.728;2023-02-22T09:40:40;230388.00;;;222.90
12234;BMP180;6179;51.748;8.728;2023-02-22T09:46:46;230388.00;;;222.90
12234;BMP180;6179;51.748;8.728;2023-02-22T09:53:01;230388.00;;;222.90
12234;BMP180;6179;51.748;8.728;2023-02-22T09:59:07;230388.00;;;222.90
12234;BMP180;6179;51.748;8.728;2023-02-22T10:05:21;230388.00;;;222.90
12234;BMP180;6179;51.748;8.728;2023-02-22T10:12:07;230388.00;;;222.90
12234;BMP180;6179;51.748;8.728;2023-02-22T10:25:19;230388.00;;;222.90
12234;BMP180;6179;51.748;8.728;2023-02-22T10:31:29;230388.00;;;222.90
12234;BMP180;6179;51.748;8.728;2023-02-22T10:37:32;230388.00;;;222.90
12234;BMP180;6179;51.748;8.728;2023-02-22T10:43:36;230388.00;;;222.90
12234;BMP180;6179;51.748;8.728;2023-02-22T10:49:45;230388.00;;;222.90
12234;BMP180;6179;51.748;8.728;2023-02-22T10:56:23;230388.00;;;222.90
12234;BMP180;6179;51.748;8.728;2023-02-22T11:02:33;230388.00;;;222.90
12234;BMP180;6179;51.748;8.728;2023-02-22T11:08:35;230388.00;;;222.90
12234;BMP180;6179;51.748;8.728;2023-02-22T11:14:35;230388.00;;;222.90
12234;BMP180;6179;51.748;8.728;2023-02-22T11:20:39;230388.00;;;222.90
12234;BMP180;6179;51.748;8.728;2023-02-22T11:26:47;230388.00;;;222.90
12234;BMP180;6179;51.748;8.728;2023-02-22T11:39:26;230388.00;;;222.90
12234;BMP180;6179;51.748;8.728;2023-02-22T11:45:27;230388.00;;;222.90
12234;BMP180;6179;51.748;8.728;2023-02-22T12:04:47;230388.00;;;222.90
12234;BMP180;6179;51.748;8.728;2023-02-22T12:11:04;230388.00;;;222.90
12234;BMP180;6179;51.748;8.728;2023-02-22T12:29:55;230388.00;;;222.90
12234;BMP180;6179;51.748;8.728;2023-02-22T12:35:59;230388.00;;;222.90
12234;BMP180;6179;51.748;8.728;2023-02-22T12:42:13;230388.00;;;222.90
12234;BMP180;6179;51.748;8.728;2023-02-22T12:48:42;230388.00;;;222.90
12234;BMP180;6179;51.748;8.728;2023-02-22T13:01:36;230388.00;;;222.90
12234;BMP180;6179;51.748;8.728;2023-02-22T13:20:52;230388.00;;;222.90
12234;BMP180;6179;51.748;8.728;2023-02-22T13:27:21;230388.00;;;222.90
12234;BMP180;6179;51.748;8.728;2023-02-22T13:47:07;230388.00;;;222.90
12234;BMP180;6179;51.748;8.728;2023-02-22T13:53:17;230388.00;;;222.90
12234;BMP180;6179;51.748;8.728;2023-02-22T13:59:31;230388.00;;;222.90
12234;BMP180;6179;51.748;8.728;2023-02-22T14:11:41;230388.00;;;222.90
12234;BMP180;6179;51.748;8.728;2023-02-22T14:17:47;230388.00;;;222.90
12234;BMP180;6179;51.748;8.728;2023-02-22T14:23:49;230388.00;;;222.90
12234;BMP180;6179;51.748;8.728;2023-02-22T14:29:57;230388.00;;;222.90
12234;BMP180;6179;51.748;8.728;2023-02-22T14:36:00;230388.00;;;222.90
12234;BMP180;6179;51.748;8.728;2023-02-22T14:42:17;230388.00;;;222.90
12234;BMP180;6179;51.748;8.728;2023-02-22T14:48:36;230388.00;;;222.90
12234;BMP180;6179;51.748;8.728;2023-02-22T15:07:30;230388.00;;;222.90
12234;BMP180;6179;51.748;8.728;2023-02-22T15:13:31;230388.00;;;222.90
12234;BMP180;6179;51.748;8.728;2023-02-22T15:19:37;230388.00;;;222.90
12234;BMP180;6179;51.748;8.728;2023-02-22T15:25:39;230388.00;;;222.90
12234;BMP180;6179;51.748;8.728;2023-02-22T15:31:46;230388.00;;;222.90
12234;BMP180;6179;51.748;8.728;2023-02-22T15:38:18;230388.00;;;222.90
12234;BMP180;6179;51.748;8.728;2023-02-22T15:44:19;230388.00;;;222.90
12234;BMP180;6179;51.748;8.728;2023-02-22T15:51:14;230388.00;;;222.90
12234;BMP180;6179;51.748;8.728;2023-02-22T15:57:23;230388.00;;;222.90
12234;BMP180;6179;51.748;8.728;2023-02-22T16:03:25;230388.00;;;222.90
12234;BMP180;6179;51.748;8.728;2023-02-22T16:09:33;230388.00;;;222.90
12234;BMP180;6179;51.748;8.728;2023-02-22T16:15:35;230388.00;;;222.90
12234;BMP180;6179;51.748;8.728;2023-02-22T16:22:01;230388.00;;;222.90
12234;BMP180;6179;51.748;8.728;2023-02-22T16:28:26;230388.00;;;222.90
12234;BMP180;6179;51.748;8.728;2023-02-22T16:34:27;230388.00;;;222.90
12234;BMP180;6179;51.748;8.728;2023-02-22T16:40:39;230388.00;;;222.90
12234;BMP180;6179;51.748;8.728;2023-02-22T16:46:40;230388.00;;;222.90
12234;BMP180;6179;51.748;8.728;2023-02-22T16:52:42;230388.00;;;222.90
12234;BMP180;6179;51.748;8.728;2023-02-22T16:58:45;230388.00;;;222.90
12234;BMP180;6179;51.748;8.728;2023-02-22T17:04:47;230388.00;;;222.90
12234;BMP180;6179;51.748;8.728;2023-02-22T17:10:52;230388.00;;;222.90
12234;BMP180;6179;51.748;8.728;2023-02-22T17:16:56;230388.00;;;222.90
12234;BMP180;6179;51.748;8.728;2023-02-22T17:23:06;230388.00;;;222.90
12234;BMP180;6179;51.748;8.728;2023-02-22T17:29:10;108422.00;;;222.90
12234;BMP180;6179;51.748;8.728;2023-02-22T17:35:14;108422.00;;;222.90
12234;BMP180;6179;51.748;8.728;2023-02-22T17:41:16;108417.00;;;222.90
12234;BMP180;6179;51.748;8.728;2023-02-22T17:47:17;108423.00;;;222.90
12234;BMP180;6179;51.748;8.728;2023-02-22T17:53:19;108414.00;;;222.90
12234;BMP180;6179;51.748;8.728;2023-02-22T17:59:22;108424.00;;;222.90
12234;BMP180;6179;51.748;8.728;2023-02-22T18:05:23;230388.00;;;222.90
12234;BMP180;6179;51.748;8.728;2023-02-22T18:11:28;230388.00;;;222.90
12234;BMP180;6179;51.748;8.728;2023-02-22T18:17:32;230388.00;;;222.90
12234;BMP180;6179;51.748;8.728;2023-02-22T18:23:32;230388.00;;;222.90
12234;BMP180;6179;51.748;8.728;2023-02-22T18:29:33;230388.00;;;222.90
12234;BMP180;6179;51.748;8.728;2023-02-22T18:35:34;230388.00;;;222.90
12234;BMP180;6179;51.748;8.728;2023-02-22T18:41:35;230388.00;;;222.90
12234;BMP180;6179;51.748;8.728;2023-02-22T18:47:43;230388.00;;;222.90
12234;BMP180;6179;51.748;8.728;2023-02-22T18:53:45;230388.00;;;222.90
12234;BMP180;6179;51.748;8.728;2023-02-22T18:59:47;230388.00;;;222.90
12234;BMP180;6179;51.748;8.728;2023-02-22T19:05:48;230388.00;;;222.90
12234;BMP180;6179;51.748;8.728;2023-02-22T19:11:50;230388.00;;;222.90
12234;BMP180;6179;51.748;8.728;2023-02-22T19:17:53;230388.00;;;222.90
12234;BMP180;6179;51.748;8.728;2023-02-22T19:23:55;230388.00;;;222.90
12234;BMP180;6179;51.748;8.728;2023-02-22T19:29:56;230388.00;;;222.90
12234;BMP180;6179;51.748;8.728;2023-02-22T19:36:00;230388.00;;;222.90
12234;BMP180;6179;51.748;8.728;2023-02-22T19:42:01;230388.00;;;222.90
12234;BMP180;6179;51.748;8.728;2023-02-22T19:48:04;230388.00;;;222.90
12234;BMP180;6179;51.748;8.728;2023-02-22T19:54:15;230388.00;;;222.90
12234;BMP180;6179;51.748;8.728;2023-02-22T20:00:19;230388.00;;;222.90
12234;BMP180;6179;51.748;8.728;2023-02-22T20:06:28;230388.00;;;222.90
12234;BMP180;6179;51.748;8.728;2023-02-22T20:12:30;230388.00;;;222.90
12234;BMP180;6179;51.748;8.728;2023-02-22T20:18:31;230388.00;;;222.90
12234;BMP180;6179;51.748;8.728;2023-02-22T20:24:32;230388.00;;;222.90
12234;BMP180;6179;51.748;8.728;2023-02-22T20:30:36;230388.00;;;222.90
12234;BMP180;6179;51.748;8.728;2023-02-22T20:36:40;230388.00;;;222.90
12234;BMP180;6179;51.748;8.728;2023-02-22T20:42:41;230388.00;;;222.90
12234;BMP180;6179;51.748;8.728;2023-02-22T20:48:44;230388.00;;;222.90
12234;BMP180;6179;51.748;8.728;2023-02-22T20:54:45;230388.00;;;222.90
12234;BMP180;6179;51.748;8.728;2023-02-22T21:00:47;230388.00;;;222.90
12234;BMP180;6179;51.748;8.728;2023-02-22T21:06:49;230388.00;;;222.90
12234;BMP180;6179;51.748;8.728;2023-02-22T21:12:49;230388.00;;;222.90
12234;BMP180;6179;51.748;8.728;2023-02-22T21:18:56;230388.00;;;222.90
12234;BMP180;6179;51.748;8.728;2023-02-22T21:24:58;230388.00;;;222.90
12234;BMP180;6179;51.748;8.728;2023-02-22T21:31:06;108417.00;;;222.90
12234;BMP180;6179;51.748;8.728;2023-02-22T21:37:07;108420.00;;;222.90
12234;BMP180;6179;51.748;8.728;2023-02-22T21:43:08;108423.00;;;222.90
12234;BMP180;6179;51.748;8.728;2023-02-22T21:49:10;108413.00;;;222.90
12234;BMP180;6179;51.748;8.728;2023-02-22T21:55:13;108419.00;;;222.90
12234;BMP180;6179;51.748;8.728;2023-02-22T22:01:14;108419.00;;;222.90
12234;BMP180;6179;51.748;8.728;2023-02-22T22:07:16;108420.00;;;222.90
12234;BMP180;6179;51.748;8.728;2023-02-22T22:13:18;108423.00;;;222.90
12234;BMP180;6179;51.748;8.728;2023-02-22T22:19:19;108414.00;;;222.90
12234;BMP180;6179;51.748;8.728;2023-02-22T22:25:20;108420.00;;;222.90
12234;BMP180;6179;51.748;8.728;2023-02-22T22:31:26;108418.00;;;222.90
12234;BMP180;6179;51.748;8.728;2023-02-22T22:37:27;108422.00;;;222.90
12234;BMP180;6179;51.748;8.728;2023-02-22T22:43:29;108419.00;;;222.90
12234;BMP180;6179;51.748;8.728;2023-02-22T22:49:29;108421.00;;;222.90
12234;BMP180;6179;51.748;8.728;2023-02-22T22:55:32;108420.00;;;222.90
12234;BMP180;6179;51.748;8.728;2023-02-22T23:01:36;108419.00;;;222.90
12234;BMP180;6179;51.748;8.728;2023-02-22T23:07:39;108423.00;;;222.90
12234;BMP180;6179;51.748;8.728;2023-02-22T23:13:40;108416.00;;;222.90
12234;BMP180;6179;51.748;8.728;2023-02-22T23:19:43;230388.00;;;222.90
12234;BMP180;6179;51.748;8.728;2023-02-22T23:25:44;230388.00;;;222.90
12234;BMP180;6179;51.748;8.728;2023-02-22T23:31:50;230388.00;;;222.90
12234;BMP180;6179;51.748;8.728;2023-02-22T23:37:51;230388.00;;;222.90
12234;BMP180;6179;51.748;8.728;2023-02-22T23:43:53;230388.00;;;222.90
12234;BMP180;6179;51.748;8.728;2023-02-22T23:49:56;230388.00;;;222.90
12234;BMP180;6179;51.748;8.728;2023-02-22T23:55:59;230388.00;;;222.90
